Time;durP1;ratioP1;P1;durP2;ratioP2;P2;SDS_P1;SDS_P2;PMS_P1;PMS_P2;Temp;Humidity;BMP_temperature;BMP_pressure;BME280_temperature;BME280_humidity;BME280_pressure;Samples;Min_cycle;Max_cycle;Signal;HPM_P1;HPM_P2
2021/09/22 00:00:17;;;;;;;9.77;7.03;;;10.40;99.90;;;;;;5030385;28;20659;-68
2021/09/22 00:02:44;;;;;;;11.83;7.87;;;10.40;99.90;;;;;;5033878;28;20207;-67
2021/09/22 00:05:12;;;;;;;12.33;7.20;;;10.30;99.90;;;;;;5033100;28;20207;-67
2021/09/22 00:07:39;;;;;;;11.20;6.83;;;10.40;99.90;;;;;;5031988;28;20213;-67
2021/09/22 00:10:10;;;;;;;9.20;7.10;;;10.40;99.90;;;;;;5033692;28;20313;-69
2021/09/22 00:12:37;;;;;;;9.57;7.10;;;10.40;99.90;;;;;;5032190;28;20206;-68
2021/09/22 00:15:05;;;;;;;10.10;7.87;;;10.40;99.90;;;;;;5032646;28;20670;-68
2021/09/22 00:17:33;;;;;;;9.90;7.17;;;10.40;99.90;;;;;;5032264;28;20215;-68
2021/09/22 00:20:00;;;;;;;12.43;7.83;;;10.40;99.90;;;;;;5032917;28;20214;-67
2021/09/22 00:22:27;;;;;;;9.37;6.90;;;10.40;99.90;;;;;;5033033;28;20198;-67
2021/09/22 00:24:53;;;;;;;10.23;7.17;;;10.40;99.90;;;;;;5032804;28;20203;-67
2021/09/22 00:27:22;;;;;;;9.67;6.67;;;10.40;99.90;;;;;;5031941;28;20237;-67
2021/09/22 00:29:48;;;;;;;9.63;7.83;;;10.40;99.90;;;;;;5032414;28;20321;-67
2021/09/22 00:32:15;;;;;;;9.43;7.80;;;10.40;99.90;;;;;;5032304;28;20317;-67
2021/09/22 00:34:42;;;;;;;9.40;7.27;;;10.40;99.90;;;;;;5032453;28;20237;-67
2021/09/22 00:37:09;;;;;;;8.60;6.77;;;10.40;99.90;;;;;;5031490;28;20272;-68
2021/09/22 00:39:36;;;;;;;10.47;7.03;;;10.30;99.90;;;;;;5032878;28;20644;-67
2021/09/22 00:42:04;;;;;;;9.27;7.30;;;10.40;99.90;;;;;;5022838;28;20215;-68
2021/09/22 00:44:32;;;;;;;10.00;7.67;;;10.40;99.90;;;;;;5032120;28;20214;-68
2021/09/22 00:46:59;;;;;;;12.50;8.20;;;10.40;99.90;;;;;;5031642;28;20195;-67
2021/09/22 00:49:26;;;;;;;11.43;7.97;;;10.40;99.90;;;;;;5032522;28;20208;-67
2021/09/22 00:51:53;;;;;;;12.10;7.23;;;10.40;99.90;;;;;;5032165;28;20215;-68
2021/09/22 00:54:20;;;;;;;10.27;7.40;;;10.40;99.90;;;;;;5032181;28;20309;-68
2021/09/22 00:56:49;;;;;;;8.53;6.77;;;10.40;99.90;;;;;;5024749;28;20222;-69
2021/09/22 00:59:16;;;;;;;9.53;7.37;;;10.40;99.90;;;;;;5017311;28;20667;-67
2021/09/22 01:01:49;;;;;;;9.87;7.33;;;10.40;99.90;;;;;;5022375;28;20651;-68
2021/09/22 01:04:16;;;;;;;9.47;8.03;;;10.40;99.90;;;;;;5032245;28;20600;-68
2021/09/22 01:06:43;;;;;;;12.73;7.90;;;10.40;99.90;;;;;;5031702;28;20211;-68
2021/09/22 01:09:10;;;;;;;11.07;7.80;;;10.40;99.90;;;;;;5031483;28;20203;-68
2021/09/22 01:11:39;;;;;;;9.97;8.03;;;10.40;99.90;;;;;;5032017;28;20349;-67
2021/09/22 01:14:07;;;;;;;9.20;7.83;;;10.40;99.90;;;;;;5031987;28;20218;-67
2021/09/22 01:16:40;;;;;;;8.97;7.33;;;10.40;99.90;;;;;;5026957;28;20656;-68
2021/09/22 01:19:09;;;;;;;10.10;7.40;;;10.40;99.90;;;;;;5022112;28;20555;-69
2021/09/22 01:21:37;;;;;;;9.93;7.33;;;10.40;99.90;;;;;;5031433;28;20216;-68
2021/09/22 01:24:04;;;;;;;10.27;7.47;;;10.40;99.90;;;;;;5031799;28;20206;-68
2021/09/22 01:26:32;;;;;;;10.73;8.07;;;10.40;99.90;;;;;;5034305;28;20236;-68
2021/09/22 01:28:59;;;;;;;9.73;7.47;;;10.40;99.90;;;;;;5036663;28;20210;-68
2021/09/22 01:31:26;;;;;;;10.30;7.60;;;10.40;99.90;;;;;;5031201;28;20218;-68
2021/09/22 01:33:54;;;;;;;9.77;8.27;;;10.40;99.90;;;;;;5032034;28;20236;-68
2021/09/22 01:36:21;;;;;;;11.43;7.43;;;10.40;99.90;;;;;;5026543;28;20810;-69
2021/09/22 01:38:49;;;;;;;10.40;7.93;;;10.40;99.90;;;;;;5031717;28;20215;-68
2021/09/22 01:41:17;;;;;;;9.77;7.63;;;10.40;99.90;;;;;;5035462;28;20289;-67
2021/09/22 01:43:44;;;;;;;11.73;7.87;;;10.40;99.90;;;;;;5030603;28;20202;-68
2021/09/22 01:46:11;;;;;;;10.33;7.77;;;10.40;99.90;;;;;;5035847;28;20210;-68
2021/09/22 01:48:39;;;;;;;9.27;7.20;;;10.40;99.90;;;;;;5023041;28;20229;-70
2021/09/22 01:51:08;;;;;;;10.17;7.73;;;10.40;99.90;;;;;;5032019;28;20322;-67
2021/09/22 01:53:35;;;;;;;10.70;7.73;;;10.40;99.90;;;;;;5031106;28;20759;-66
2021/09/22 01:56:05;;;;;;;10.30;8.03;;;10.40;99.90;;;;;;5030120;28;20249;-68
2021/09/22 01:58:32;;;;;;;11.93;8.43;;;10.40;99.90;;;;;;5031136;28;20664;-67
2021/09/22 02:01:01;;;;;;;9.90;7.90;;;10.40;99.90;;;;;;5031092;28;20207;-69
2021/09/22 02:03:28;;;;;;;10.07;7.80;;;10.30;99.90;;;;;;5031001;28;20199;-68
2021/09/22 02:05:55;;;;;;;11.90;7.90;;;10.30;99.90;;;;;;5030432;28;20574;-67
2021/09/22 02:08:22;;;;;;;11.50;7.53;;;10.30;99.90;;;;;;5031072;28;20510;-68
2021/09/22 02:10:49;;;;;;;11.63;8.40;;;10.40;99.90;;;;;;5031084;28;20210;-68
2021/09/22 02:13:17;;;;;;;11.67;8.07;;;10.40;99.90;;;;;;5030866;28;20218;-68
2021/09/22 02:15:44;;;;;;;11.17;8.30;;;10.40;99.90;;;;;;5024439;28;20212;-68
2021/09/22 02:18:11;;;;;;;12.47;8.07;;;10.40;99.90;;;;;;5030721;28;20206;-68
2021/09/22 02:20:38;;;;;;;12.37;8.30;;;10.40;99.90;;;;;;5031206;28;20221;-67
2021/09/22 02:23:05;;;;;;;11.03;8.30;;;10.40;99.90;;;;;;5031146;28;20285;-69
2021/09/22 02:25:32;;;;;;;10.73;7.53;;;10.40;99.90;;;;;;5030023;28;20293;-67
2021/09/22 02:27:59;;;;;;;10.70;7.90;;;10.40;99.90;;;;;;5030523;28;20203;-67
2021/09/22 02:30:27;;;;;;;10.13;7.70;;;10.50;99.90;;;;;;5031102;28;20221;-67
2021/09/22 02:32:54;;;;;;;11.53;8.33;;;10.50;99.90;;;;;;5030971;28;20581;-67
2021/09/22 02:35:21;;;;;;;12.20;8.07;;;10.50;99.90;;;;;;5031631;28;20257;-68
2021/09/22 02:37:47;;;;;;;11.43;7.63;;;10.50;99.90;;;;;;5030585;28;20203;-68
2021/09/22 02:40:17;;;;;;;10.63;7.97;;;10.50;99.90;;;;;;5030625;28;20211;-68
2021/09/22 02:42:45;;;;;;;11.77;8.53;;;10.50;99.90;;;;;;5030782;28;20218;-67
2021/09/22 02:45:13;;;;;;;9.83;7.43;;;10.50;99.90;;;;;;5030001;28;20207;-68
2021/09/22 02:47:42;;;;;;;9.97;7.33;;;10.50;99.90;;;;;;5030430;28;20207;-67
2021/09/22 02:50:11;;;;;;;9.30;7.47;;;10.50;99.90;;;;;;5030423;28;20217;-68
2021/09/22 02:52:38;;;;;;;8.63;7.17;;;10.50;99.90;;;;;;5030841;28;20237;-68
2021/09/22 02:55:06;;;;;;;9.93;7.37;;;10.50;99.90;;;;;;5033423;28;20206;-68
2021/09/22 02:57:32;;;;;;;11.00;6.97;;;10.60;99.90;;;;;;5033647;28;20218;-68
2021/09/22 03:00:02;;;;;;;8.80;7.43;;;10.50;99.90;;;;;;5034419;28;20210;-68
2021/09/22 03:02:29;;;;;;;12.03;7.60;;;10.60;99.90;;;;;;5033919;28;20256;-67
2021/09/22 03:04:57;;;;;;;9.80;7.27;;;10.50;99.90;;;;;;5034578;28;20203;-68
2021/09/22 03:07:24;;;;;;;9.63;7.53;;;10.60;99.90;;;;;;5034098;28;20579;-66
2021/09/22 03:09:50;;;;;;;10.27;7.33;;;10.60;99.90;;;;;;5033955;28;20213;-67
2021/09/22 03:12:17;;;;;;;7.93;6.43;;;10.60;99.90;;;;;;5021640;28;20258;-69
2021/09/22 03:14:44;;;;;;;10.93;6.90;;;10.60;99.90;;;;;;5033030;28;20911;-66
2021/09/22 03:17:11;;;;;;;9.87;7.53;;;10.60;99.90;;;;;;5033615;28;20222;-68
2021/09/22 03:19:38;;;;;;;10.50;7.83;;;10.50;99.90;;;;;;5034134;28;20199;-68
2021/09/22 03:22:06;;;;;;;7.87;6.53;;;10.50;99.90;;;;;;5033994;28;20218;-68
2021/09/22 03:24:33;;;;;;;8.63;6.80;;;10.50;99.90;;;;;;5033740;28;20217;-67
2021/09/22 03:27:00;;;;;;;9.70;7.37;;;10.50;99.90;;;;;;5024746;28;20238;-68
2021/09/22 03:29:27;;;;;;;10.43;6.83;;;10.50;99.90;;;;;;5033343;28;20215;-68
2021/09/22 03:31:53;;;;;;;8.97;6.80;;;10.50;99.90;;;;;;5033672;28;20203;-68
2021/09/22 03:34:20;;;;;;;9.67;7.20;;;10.50;99.90;;;;;;5033884;28;20313;-68
2021/09/22 03:36:47;;;;;;;8.53;6.87;;;10.50;99.90;;;;;;5033219;28;20687;-67
2021/09/22 03:39:15;;;;;;;9.13;7.70;;;10.40;99.90;;;;;;5033929;28;20202;-68
2021/09/22 03:41:42;;;;;;;10.10;6.80;;;10.50;99.90;;;;;;5033988;28;20211;-68
2021/09/22 03:44:09;;;;;;;9.20;7.10;;;10.50;99.90;;;;;;5033235;28;20230;-68
2021/09/22 03:46:36;;;;;;;9.43;6.77;;;10.40;99.90;;;;;;5032758;28;20598;-68
2021/09/22 03:49:03;;;;;;;10.40;6.93;;;10.40;99.90;;;;;;5033853;28;20245;-68
2021/09/22 03:51:29;;;;;;;8.03;6.63;;;10.40;99.90;;;;;;5034270;28;20202;-67
2021/09/22 03:53:56;;;;;;;10.37;7.20;;;10.40;99.90;;;;;;5033322;28;20222;-68
2021/09/22 03:56:24;;;;;;;10.00;6.53;;;10.40;99.90;;;;;;5032739;28;20203;-67
2021/09/22 03:58:51;;;;;;;7.67;5.97;;;10.30;99.90;;;;;;5033529;28;20213;-68
2021/09/22 04:01:18;;;;;;;7.67;6.30;;;10.40;99.90;;;;;;5033498;28;20206;-68
2021/09/22 04:03:45;;;;;;;9.87;7.10;;;10.30;99.90;;;;;;5033559;28;20696;-67
2021/09/22 04:06:12;;;;;;;10.97;7.27;;;10.30;99.90;;;;;;5030935;28;20203;-68
2021/09/22 04:08:39;;;;;;;8.00;6.77;;;10.40;99.90;;;;;;5032956;28;20207;-68
2021/09/22 04:11:06;;;;;;;7.77;6.40;;;10.40;99.90;;;;;;5032969;28;20213;-68
2021/09/22 04:13:34;;;;;;;8.23;6.33;;;10.40;99.90;;;;;;5032460;28;20281;-68
2021/09/22 04:16:01;;;;;;;7.77;6.13;;;10.30;99.90;;;;;;5032039;28;20552;-68
2021/09/22 04:18:28;;;;;;;10.80;6.60;;;10.40;99.90;;;;;;5025317;28;20642;-68
2021/09/22 04:20:55;;;;;;;8.87;6.47;;;10.40;99.90;;;;;;5027047;28;20213;-67
2021/09/22 04:23:22;;;;;;;6.53;5.83;;;10.40;99.90;;;;;;5031419;28;20217;-68
2021/09/22 04:25:49;;;;;;;9.87;6.60;;;10.40;99.90;;;;;;5031690;28;20238;-68
2021/09/22 04:28:15;;;;;;;8.93;6.43;;;10.50;99.90;;;;;;5032690;28;20248;-68
2021/09/22 04:30:44;;;;;;;10.30;6.53;;;10.50;99.90;;;;;;5032641;28;20293;-67
2021/09/22 04:33:11;;;;;;;8.03;6.13;;;10.50;99.90;;;;;;5032407;28;20209;-68
2021/09/22 04:35:37;;;;;;;7.17;5.80;;;10.50;99.90;;;;;;5032671;28;20563;-68
2021/09/22 04:38:06;;;;;;;7.37;5.73;;;10.60;99.90;;;;;;5032335;28;20210;-67
2021/09/22 04:40:34;;;;;;;7.63;5.93;;;10.50;99.90;;;;;;5032359;28;20263;-67
2021/09/22 04:43:01;;;;;;;9.17;7.13;;;10.50;99.90;;;;;;5032837;28;20289;-68
2021/09/22 04:45:29;;;;;;;9.83;6.97;;;10.40;99.90;;;;;;5026968;28;20209;-67
2021/09/22 04:47:58;;;;;;;9.30;6.27;;;10.50;99.90;;;;;;5031660;28;20951;-67
2021/09/22 04:50:25;;;;;;;8.13;6.50;;;10.50;99.90;;;;;;5031863;28;20281;-68
2021/09/22 04:52:52;;;;;;;10.57;6.73;;;10.40;99.90;;;;;;5027070;28;20210;-67
2021/09/22 04:55:19;;;;;;;8.63;6.33;;;10.50;99.90;;;;;;5032389;28;20214;-67
2021/09/22 04:57:46;;;;;;;7.90;6.33;;;10.50;99.90;;;;;;5033135;28;20210;-67
2021/09/22 05:00:14;;;;;;;8.70;6.70;;;10.50;99.90;;;;;;5040920;28;20574;-68
2021/09/22 05:02:41;;;;;;;10.37;6.67;;;10.50;99.90;;;;;;5045384;28;20577;-68
2021/09/22 05:05:10;;;;;;;8.43;6.27;;;10.50;99.90;;;;;;5032649;28;20683;-68
2021/09/22 05:07:37;;;;;;;11.00;6.57;;;10.50;99.90;;;;;;5033290;28;21008;-68
2021/09/22 05:10:08;;;;;;;11.60;7.43;;;10.50;99.90;;;;;;5050877;28;20206;-67
2021/09/22 05:12:34;;;;;;;9.20;6.73;;;10.60;99.90;;;;;;5037391;28;20561;-69
2021/09/22 05:15:01;;;;;;;8.43;5.90;;;10.50;99.90;;;;;;5030688;28;20230;-68
2021/09/22 05:17:28;;;;;;;6.60;5.77;;;10.50;99.90;;;;;;5033397;28;20209;-68
2021/09/22 05:19:55;;;;;;;6.90;5.67;;;10.50;99.90;;;;;;5036597;28;20238;-69
2021/09/22 05:22:23;;;;;;;8.00;6.17;;;10.50;99.90;;;;;;5032013;28;20248;-67
2021/09/22 05:24:50;;;;;;;7.77;6.40;;;10.50;99.90;;;;;;5032250;28;20199;-67
2021/09/22 05:27:17;;;;;;;9.17;6.67;;;10.50;99.90;;;;;;5028895;28;20775;-69
2021/09/22 05:29:44;;;;;;;9.83;7.33;;;10.50;99.90;;;;;;5039570;28;20210;-69
2021/09/22 05:32:12;;;;;;;9.70;6.50;;;10.50;99.90;;;;;;5037407;28;20301;-69
2021/09/22 05:34:39;;;;;;;7.97;6.37;;;10.50;99.90;;;;;;5031245;28;20227;-70
2021/09/22 05:37:06;;;;;;;8.93;7.37;;;10.50;99.90;;;;;;5035984;28;21019;-67
2021/09/22 05:39:35;;;;;;;8.60;6.97;;;10.50;99.90;;;;;;5039895;28;20609;-68
2021/09/22 05:42:02;;;;;;;10.37;7.60;;;10.50;99.90;;;;;;5036118;28;20822;-68
2021/09/22 05:44:29;;;;;;;11.23;7.13;;;10.50;99.90;;;;;;5033701;28;20317;-68
2021/09/22 05:46:56;;;;;;;8.90;6.43;;;10.50;99.90;;;;;;5031182;28;20289;-69
2021/09/22 05:49:22;;;;;;;12.03;7.33;;;10.60;99.90;;;;;;5029861;28;20212;-69
2021/09/22 05:51:49;;;;;;;10.43;7.80;;;10.60;99.90;;;;;;5031359;28;20673;-68
2021/09/22 05:54:17;;;;;;;9.83;7.27;;;10.70;99.90;;;;;;5031118;28;20222;-69
2021/09/22 05:56:46;;;;;;;13.60;8.30;;;10.70;99.90;;;;;;5030356;28;20203;-69
2021/09/22 05:59:13;;;;;;;9.00;7.53;;;10.70;99.90;;;;;;5026213;28;20211;-68
2021/09/22 06:01:40;;;;;;;10.07;7.23;;;10.70;99.90;;;;;;5031091;28;20576;-68
2021/09/22 06:04:07;;;;;;;10.20;7.03;;;10.80;99.90;;;;;;5025287;28;20209;-70
2021/09/22 06:06:34;;;;;;;10.50;7.07;;;10.80;99.90;;;;;;5028593;28;20293;-68
2021/09/22 06:09:01;;;;;;;12.23;8.10;;;10.80;99.90;;;;;;5031125;28;20213;-68
2021/09/22 06:11:27;;;;;;;9.07;6.27;;;10.90;99.90;;;;;;5031140;28;20728;-70
2021/09/22 06:13:56;;;;;;;10.73;7.97;;;11.00;99.90;;;;;;5026643;28;20238;-68
2021/09/22 06:16:24;;;;;;;8.87;6.93;;;11.10;99.90;;;;;;5030943;28;20203;-69
2021/09/22 06:18:51;;;;;;;10.20;6.53;;;11.20;99.90;;;;;;5032484;28;20199;-67
2021/09/22 06:21:18;;;;;;;9.63;7.53;;;11.40;99.90;;;;;;5032798;28;20620;-68
2021/09/22 06:23:45;;;;;;;10.13;7.13;;;11.40;99.90;;;;;;5031048;28;20214;-70
2021/09/22 06:26:12;;;;;;;7.67;6.50;;;11.70;99.90;;;;;;5028862;28;21167;-68
2021/09/22 06:28:39;;;;;;;9.63;6.57;;;11.80;99.90;;;;;;5033059;28;20639;-69
2021/09/22 06:31:07;;;;;;;7.70;6.57;;;11.90;99.90;;;;;;5036451;28;20234;-68
2021/09/22 06:33:34;;;;;;;9.73;7.10;;;12.10;99.90;;;;;;5036638;28;20210;-68
2021/09/22 06:36:01;;;;;;;8.47;6.47;;;12.20;99.90;;;;;;5035180;28;20238;-69
2021/09/22 06:38:28;;;;;;;10.57;6.73;;;12.30;99.90;;;;;;5029395;28;20234;-67
2021/09/22 06:40:55;;;;;;;8.87;6.50;;;12.40;99.90;;;;;;5023703;28;20214;-69
2021/09/22 06:43:22;;;;;;;9.53;6.63;;;12.50;99.90;;;;;;5032593;28;20602;-69
2021/09/22 06:45:49;;;;;;;7.97;6.00;;;12.50;99.90;;;;;;5034542;28;20210;-68
2021/09/22 06:48:17;;;;;;;7.27;5.83;;;12.60;99.90;;;;;;5035032;28;20202;-66
2021/09/22 06:50:45;;;;;;;8.00;6.23;;;12.70;99.90;;;;;;5034303;28;20202;-65
2021/09/22 06:53:12;;;;;;;6.43;5.83;;;12.70;99.90;;;;;;5034095;28;20207;-68
2021/09/22 06:55:39;;;;;;;8.00;5.73;;;12.80;99.90;;;;;;5034352;28;20226;-69
2021/09/22 06:58:07;;;;;;;9.07;4.77;;;12.90;99.90;;;;;;5033910;28;20234;-67
2021/09/22 07:00:35;;;;;;;8.43;5.10;;;13.00;99.90;;;;;;5033875;28;20321;-64
2021/09/22 07:03:02;;;;;;;7.40;5.77;;;13.10;99.90;;;;;;5033929;28;20242;-66
2021/09/22 07:05:30;;;;;;;6.10;4.90;;;13.10;99.90;;;;;;5033423;28;20629;-67
2021/09/22 07:07:57;;;;;;;5.90;5.10;;;13.20;99.90;;;;;;5030825;28;20234;-67
2021/09/22 07:10:25;;;;;;;7.47;5.17;;;13.30;99.90;;;;;;5035203;28;20241;-69
2021/09/22 07:12:52;;;;;;;9.00;5.13;;;13.40;99.90;;;;;;5034938;28;20199;-68
2021/09/22 07:15:20;;;;;;;5.70;4.33;;;13.50;99.90;;;;;;5035429;28;20275;-68
2021/09/22 07:17:47;;;;;;;5.43;4.30;;;13.70;99.90;;;;;;5037204;28;20310;-69
2021/09/22 07:20:14;;;;;;;7.30;3.93;;;13.80;99.90;;;;;;5032719;28;20209;-67
2021/09/22 07:22:42;;;;;;;4.53;3.67;;;13.90;99.90;;;;;;5033933;28;20213;-67
2021/09/22 07:25:11;;;;;;;6.53;4.13;;;14.10;99.90;;;;;;5040946;28;20205;-67
2021/09/22 07:27:38;;;;;;;3.57;3.07;;;14.20;99.90;;;;;;5027604;28;20253;-68
2021/09/22 07:30:07;;;;;;;7.90;4.50;;;14.30;99.90;;;;;;5031257;28;20204;-68
2021/09/22 07:32:34;;;;;;;4.47;3.23;;;14.40;99.90;;;;;;5041846;28;20719;-67
2021/09/22 07:35:00;;;;;;;4.37;3.43;;;14.40;99.90;;;;;;5048100;28;20660;-67
2021/09/22 07:37:28;;;;;;;3.53;2.80;;;14.50;99.90;;;;;;5045470;28;20321;-68
2021/09/22 07:39:56;;;;;;;4.90;3.50;;;14.60;99.90;;;;;;5036447;28;20675;-67
2021/09/22 07:42:24;;;;;;;4.37;2.87;;;14.70;99.90;;;;;;5029082;28;20275;-68
2021/09/22 07:44:53;;;;;;;3.17;2.57;;;14.80;99.90;;;;;;5035162;28;20206;-68
2021/09/22 07:47:21;;;;;;;3.63;2.50;;;15.00;99.90;;;;;;5030965;28;20297;-69
2021/09/22 07:49:48;;;;;;;4.43;2.43;;;15.20;99.90;;;;;;5035224;28;20210;-67
2021/09/22 07:52:16;;;;;;;3.23;2.13;;;15.40;99.90;;;;;;5030584;28;20214;-67
2021/09/22 07:54:44;;;;;;;5.03;2.40;;;15.50;99.90;;;;;;5033902;28;20227;-67
2021/09/22 07:57:12;;;;;;;2.17;1.97;;;15.50;99.90;;;;;;5034222;28;20206;-67
2021/09/22 07:59:39;;;;;;;2.47;2.23;;;15.60;99.90;;;;;;5034077;28;20603;-68
2021/09/22 08:02:06;;;;;;;3.13;2.50;;;15.50;99.90;;;;;;5033797;28;20636;-68
2021/09/22 08:04:33;;;;;;;4.93;3.30;;;15.50;99.90;;;;;;5032741;28;20216;-68
2021/09/22 08:07:02;;;;;;;5.77;2.83;;;15.50;99.90;;;;;;5034739;28;20202;-68
2021/09/22 08:09:29;;;;;;;5.33;2.83;;;15.50;99.90;;;;;;5039677;28;20211;-69
2021/09/22 08:11:56;;;;;;;3.33;2.27;;;15.60;99.90;;;;;;5041294;28;20205;-68
2021/09/22 08:14:29;;;;;;;2.30;2.10;;;15.60;99.90;;;;;;5037348;28;20209;-68
2021/09/22 08:16:57;;;;;;;2.17;1.97;;;15.70;99.90;;;;;;5032285;28;20202;-68
2021/09/22 08:19:23;;;;;;;2.77;2.30;;;16.00;99.90;;;;;;5036063;28;20216;-68
2021/09/22 08:21:50;;;;;;;2.77;2.03;;;16.40;99.90;;;;;;5045076;28;20264;-67
2021/09/22 08:24:17;;;;;;;2.20;2.00;;;16.60;99.90;;;;;;5031613;28;20306;-68
2021/09/22 08:26:44;;;;;;;2.40;1.90;;;16.80;99.90;;;;;;5019177;28;20673;-68
2021/09/22 08:29:11;;;;;;;2.37;2.17;;;16.90;99.30;;;;;;5032246;28;20238;-68
2021/09/22 08:31:39;;;;;;;2.00;1.73;;;17.00;98.30;;;;;;5031391;28;20206;-68
2021/09/22 08:34:06;;;;;;;3.27;2.10;;;17.00;97.40;;;;;;5031625;28;20210;-68
2021/09/22 08:36:33;;;;;;;4.93;1.83;;;16.80;96.10;;;;;;5029503;28;20239;-68
2021/09/22 08:39:00;;;;;;;3.27;2.10;;;16.70;95.90;;;;;;5030335;28;20202;-69
2021/09/22 08:41:27;;;;;;;2.80;1.83;;;16.80;95.80;;;;;;5032831;28;20577;-68
2021/09/22 08:43:55;;;;;;;2.10;1.87;;;16.80;95.20;;;;;;5025700;28;20211;-69
2021/09/22 08:46:22;;;;;;;2.87;2.00;;;16.80;94.80;;;;;;5025347;28;20305;-69
2021/09/22 08:48:51;;;;;;;4.73;2.00;;;16.90;94.80;;;;;;5032286;28;20216;-68
2021/09/22 08:51:18;;;;;;;2.63;2.03;;;17.00;94.50;;;;;;5028415;28;20213;-69
2021/09/22 08:53:44;;;;;;;2.40;2.20;;;17.20;94.20;;;;;;5032177;28;20681;-68
2021/09/22 08:56:12;;;;;;;3.03;2.30;;;17.30;94.10;;;;;;5028037;28;20321;-69
2021/09/22 08:58:40;;;;;;;1.93;1.70;;;17.50;93.90;;;;;;5031291;28;20211;-69
2021/09/22 09:01:15;;;;;;;5.20;2.60;;;17.50;92.80;;;;;;5031842;28;20212;-68
2021/09/22 09:03:43;;;;;;;2.50;2.00;;;17.30;92.20;;;;;;5032020;28;20220;-68
2021/09/22 09:06:20;;;;;;;3.63;1.70;;;17.20;92.20;;;;;;5031872;28;20283;-68
2021/09/22 09:08:48;;;;;;;2.13;1.87;;;17.30;93.10;;;;;;5031942;28;20210;-69
2021/09/22 09:11:15;;;;;;;1.67;1.50;;;18.40;97.70;;;;;;5031693;28;20210;-69
2021/09/22 09:13:49;;;;;;;2.13;1.70;;;21.00;91.90;;;;;;5031518;28;20301;-68
2021/09/22 09:16:18;;;;;;;1.75;1.60;;;24.40;73.70;;;;;;5031890;28;20222;-68
2021/09/22 09:18:48;;;;;;;1.80;1.50;;;27.30;55.80;;;;;;5032112;28;20525;-68
2021/09/22 09:21:15;;;;;;;2.33;1.90;;;29.00;50.30;;;;;;5031467;28;20218;-68
2021/09/22 09:23:52;;;;;;;3.97;1.67;;;31.20;45.70;;;;;;5032059;28;20210;-68
2021/09/22 09:26:24;;;;;;;2.70;1.30;;;33.90;40.10;;;;;;5028449;28;20230;-67
2021/09/22 09:28:53;;;;;;;1.20;1.10;;;36.40;36.10;;;;;;5031862;28;20198;-67
2021/09/22 09:31:22;;;;;;;1.92;1.45;;;37.60;32.60;;;;;;5017696;28;20297;-68
2021/09/22 09:33:51;;;;;;;2.30;1.50;;;36.90;31.10;;;;;;5031507;28;20210;-68
2021/09/22 09:36:27;;;;;;;2.33;1.75;;;35.20;31.00;;;;;;5030817;28;20574;-68
2021/09/22 09:38:59;;;;;;;2.20;1.77;;;32.90;32.80;;;;;;5031771;28;20207;-67
2021/09/22 09:41:32;;;;;;;1.75;1.45;;;30.90;34.40;;;;;;5031465;28;20206;-68
2021/09/22 09:44:00;;;;;;;1.50;1.40;;;30.20;39.50;;;;;;5029530;28;20659;-68
2021/09/22 09:46:29;;;;;;;1.98;1.33;;;32.00;36.60;;;;;;5036060;28;20289;-68
2021/09/22 09:49:02;;;;;;;1.48;1.38;;;34.50;34.50;;;;;;5036068;28;20201;-68
2021/09/22 09:51:41;;;;;;;1.60;1.13;;;36.40;32.00;;;;;;5042737;28;20194;-68
2021/09/22 09:54:16;;;;;;;1.20;1.10;;;37.50;30.50;;;;;;5034705;28;20202;-68
2021/09/22 09:56:44;;;;;;;1.40;1.30;;;37.10;29.80;;;;;;5041071;28;20209;-69
2021/09/22 09:59:11;;;;;;;2.13;1.65;;;36.10;29.60;;;;;;5041305;28;20217;-68
2021/09/22 10:01:43;;;;;;;1.88;1.67;;;34.40;30.10;;;;;;5030665;28;20241;-67
2021/09/22 10:04:12;;;;;;;1.35;1.25;;;33.00;34.20;;;;;;5036857;28;20205;-67
2021/09/22 10:06:39;;;;;;;1.63;1.15;;;33.10;33.20;;;;;;5033305;28;20207;-68
2021/09/22 10:09:07;;;;;;;1.70;1.60;;;34.20;32.70;;;;;;5033237;28;20210;-68
2021/09/22 10:11:37;;;;;;;1.10;1.05;;;36.00;31.10;;;;;;5031944;28;20202;-68
2021/09/22 10:14:05;;;;;;;1.83;1.35;;;37.60;29.60;;;;;;5031239;28;20202;-68
2021/09/22 10:16:34;;;;;;;1.38;1.27;;;37.70;29.30;;;;;;5034953;28;20230;-68
2021/09/22 10:19:02;;;;;;;1.75;1.27;;;38.30;28.90;;;;;;5032192;28;20655;-67
2021/09/22 10:21:30;;;;;;;2.80;1.35;;;37.10;27.70;;;;;;5024895;28;20198;-67
2021/09/22 10:23:59;;;;;;;2.65;1.50;;;35.70;28.90;;;;;;5024078;28;20216;-66
2021/09/22 10:26:27;;;;;;;1.90;1.30;;;34.80;30.70;;;;;;5026555;28;20235;-67
2021/09/22 10:29:00;;;;;;;2.70;1.13;;;33.90;29.80;;;;;;5027746;28;20304;-67
2021/09/22 10:31:44;;;;;;;2.53;1.33;;;32.10;31.10;;;;;;5027011;28;20202;-68
2021/09/22 10:34:26;;;;;;;1.50;1.40;;;29.90;33.00;;;;;;5031882;28;20206;-67
2021/09/22 10:36:53;;;;;;;3.20;1.50;;;27.70;37.10;;;;;;5036720;28;20236;-68
2021/09/22 10:39:25;;;;;;;1.17;1.08;;;28.30;39.10;;;;;;5037975;28;20211;-67
2021/09/22 10:41:52;;;;;;;1.58;1.20;;;30.80;35.80;;;;;;5025727;28;20195;-67
2021/09/22 10:44:32;;;;;;;1.65;1.40;;;33.60;32.30;;;;;;5030766;28;20261;-66
2021/09/22 10:47:24;;;;;;;1.13;1.02;;;35.50;29.90;;;;;;5026737;28;20195;-66
2021/09/22 10:49:51;;;;;;;2.38;1.70;;;34.40;29.50;;;;;;5025646;28;20207;-67
2021/09/22 10:52:34;;;;;;;1.65;1.38;;;33.80;31.30;;;;;;5031350;28;20221;-67
2021/09/22 10:55:13;;;;;;;1.58;1.25;;;34.60;31.60;;;;;;5022492;28;20222;-66
2021/09/22 10:57:41;;;;;;;2.60;1.98;;;36.00;29.60;;;;;;5032167;28;20644;-70
2021/09/22 11:00:13;;;;;;;2.92;1.40;;;36.80;29.10;;;;;;5031130;28;20211;-68
2021/09/22 11:02:44;;;;;;;1.20;1.02;;;36.30;28.20;;;;;;5033078;28;20224;-68
2021/09/22 11:05:12;;;;;;;1.23;1.13;;;35.20;30.10;;;;;;5030491;28;20210;-67
2021/09/22 11:08:03;;;;;;;1.20;1.10;;;35.50;29.80;;;;;;5031287;28;20205;-67
2021/09/22 11:10:45;;;;;;;2.30;1.20;;;36.10;28.80;;;;;;5029971;28;20198;-67
2021/09/22 11:13:33;;;;;;;2.05;0.93;;;35.70;29.60;;;;;;5027701;28;20199;-67
2021/09/22 11:16:20;;;;;;;1.20;1.10;;;35.70;29.10;;;;;;5032804;28;20288;-66
2021/09/22 11:18:49;;;;;;;1.95;1.08;;;34.20;29.10;;;;;;5034342;28;20694;-66
2021/09/22 11:21:20;;;;;;;1.10;1.00;;;32.30;32.60;;;;;;5034280;28;20636;-67
2021/09/22 11:23:47;;;;;;;3.45;1.10;;;31.30;30.70;;;;;;5033226;28;20210;-67
2021/09/22 11:26:13;;;;;;;1.20;1.02;;;29.50;32.90;;;;;;5028961;28;20325;-67
2021/09/22 11:28:52;;;;;;;1.48;1.10;;;28.60;37.30;;;;;;5033576;28;20213;-70
2021/09/22 11:31:21;;;;;;;1.20;1.10;;;29.00;38.20;;;;;;5023024;28;20483;-66
2021/09/22 11:33:49;;;;;;;1.20;1.13;;;28.80;36.60;;;;;;5032528;28;20298;-67
2021/09/22 11:36:16;;;;;;;2.05;1.40;;;29.20;35.10;;;;;;5033210;28;20313;-67
2021/09/22 11:38:43;;;;;;;1.27;1.17;;;29.10;35.10;;;;;;5032883;28;20210;-67
2021/09/22 11:41:10;;;;;;;1.95;1.30;;;28.40;36.00;;;;;;5033066;28;20213;-69
2021/09/22 11:43:37;;;;;;;1.65;1.30;;;28.50;36.40;;;;;;5032970;28;20234;-68
2021/09/22 11:46:05;;;;;;;1.98;1.20;;;28.70;35.30;;;;;;5033290;28;20203;-66
2021/09/22 11:48:34;;;;;;;1.48;1.08;;;28.90;34.70;;;;;;5033152;28;20210;-67
2021/09/22 11:51:05;;;;;;;2.15;0.85;;;29.10;34.90;;;;;;5033140;28;20215;-69
2021/09/22 11:53:33;;;;;;;1.60;1.00;;;29.10;35.20;;;;;;5033326;28;20668;-67
2021/09/22 11:56:01;;;;;;;1.25;1.13;;;28.90;34.80;;;;;;5032713;28;20676;-67
2021/09/22 11:58:29;;;;;;;1.33;1.02;;;28.40;35.60;;;;;;5028696;28;20261;-69
2021/09/22 12:00:58;;;;;;;2.47;1.00;;;28.00;36.60;;;;;;5033052;28;20211;-68
2021/09/22 12:03:26;;;;;;;1.20;1.08;;;27.80;36.40;;;;;;5032886;28;20213;-67
2021/09/22 12:06:06;;;;;;;1.65;0.98;;;27.60;36.20;;;;;;5032218;28;20211;-68
2021/09/22 12:08:35;;;;;;;2.00;1.05;;;27.40;36.20;;;;;;5029931;28;20214;-67
2021/09/22 12:11:03;;;;;;;1.08;0.80;;;27.30;36.10;;;;;;5031815;28;20206;-68
2021/09/22 12:13:30;;;;;;;0.90;0.90;;;27.30;36.20;;;;;;5032168;28;20564;-68
2021/09/22 12:15:58;;;;;;;0.70;0.70;;;27.20;36.10;;;;;;5032810;28;20230;-68
2021/09/22 12:18:26;;;;;;;2.22;0.90;;;27.10;36.00;;;;;;5032281;28;20306;-67
2021/09/22 12:20:55;;;;;;;1.05;0.93;;;26.70;36.80;;;;;;5032149;28;20213;-69
2021/09/22 12:23:29;;;;;;;2.10;0.80;;;26.50;37.20;;;;;;5031782;28;20217;-67
2021/09/22 12:26:13;;;;;;;1.15;1.10;;;26.10;36.90;;;;;;5030285;28;20234;-67
2021/09/22 12:28:41;;;;;;;2.17;1.02;;;25.50;37.50;;;;;;5030534;28;20210;-67
2021/09/22 12:31:16;;;;;;;1.92;1.00;;;25.10;38.30;;;;;;5032441;28;20675;-68
2021/09/22 12:33:45;;;;;;;2.70;1.00;;;24.90;39.70;;;;;;5021005;28;20220;-68
2021/09/22 12:36:13;;;;;;;1.58;1.00;;;25.00;39.50;;;;;;5032055;28;20302;-67
2021/09/22 12:38:50;;;;;;;0.90;0.90;;;24.80;39.10;;;;;;5026654;28;20218;-68
2021/09/22 12:41:20;;;;;;;0.90;0.90;;;24.60;39.60;;;;;;5032901;28;20205;-69
2021/09/22 12:43:57;;;;;;;0.90;0.90;;;24.20;39.30;;;;;;5018046;28;20297;-68
2021/09/22 12:46:24;;;;;;;0.68;0.68;;;23.80;39.80;;;;;;5032172;28;20207;-68
2021/09/22 12:48:51;;;;;;;0.90;0.90;;;23.50;40.10;;;;;;5032349;28;20668;-67
2021/09/22 12:51:20;;;;;;;1.20;1.10;;;23.20;40.00;;;;;;5031081;28;20206;-69